Aviation Digital Data Service (ADDS)

Output produced by TAFs form (1343 UTC 25 February 2018)
found at http://aviationweather.gov/adds/tafs/
 
TAF AMD KDOV 251221Z 2512/2614 11006KT 0400 FG OVC004 520103 QNH2993INS 
     BECMG 2515/2516 21009KT 4800 -SHRA BR OVC005 QNH2988INS 
     BECMG 2520/2521 33009KT 9999 NSW BKN015 OVC080 QNH2989INS 
     BECMG 2602/2603 30006KT 8000 BR FEW015 BKN160 QNH3000INS TX15/2521Z TN06/2512Z